الصفحة الرئيسية
METAR-TAF:

METAR-TAF

مطار :

باماكو, مالي

مطار باماكو موديبو كيتا الدولي

دائرة عرض: 12-32N, خط طول: 007-57W, ارتفاع: 380 متر

مراقبة الطقس الحالي

تاريخ ووقت الإصدار 39 دقيقة قبل الساعة 21:00UTC
رياح هادئة
درجة الحرارة 25°درجة مئوية
الرطوبة 26%
ضغط 1009 hPa
الرؤية 10 كم أو أكثر
الغيوم لا تقل 1500 م ولا وجود لمزنة ركامية السحاب الأسود

METAR: GABS 182100Z 00000KT CAVOK 25/04 Q1009 NOSIG

زمن: 21:39 (21:39 UTC)

توقعات

تاريخ ووقت الإصدار 4ساعات و 39 دقيقة قبل الساعة 17:00UTC
التوقعات صالحة من18 الساعة 18 UTC إلى 19 الساعة 24 UTC
ريح 6 عقدة من الغرب/الجنوب الغربي
الرؤية 10 كم أو أكثر
الغيوم لا تقل 1500 م ولا وجود لمزنة ركامية السحاب الأسود

TAF: GABS 181700Z 1818/1924 24006KT CAVOK

أرصاد الطقس والتوقعات من أكثر من 4000 مطار (تقارير الطقس للمطار METAR والتنبؤ بالطقس بالمطارTAF).

المحطات المتاحة هي النقط الصفراء والحمراء على الخريطة.

حرك المؤشر فوق النقطة لمعرفة اسم المحطة.

ثم انقر لمعرفة أرصاد وتوقعات الطقس.

لتغيير الخارطة: اضغط على الأزرار الخضراء مع رمز الصليب الأسود للتكبير. على الزر الأخضر مع شرطة للتصغير، أو على الأسهم الخضراء للخرائط المجاورة.


METAR-TAF: